Terminal Aerodrome Forecast
Issued by NWS Corpus Christi, TX

Home | Current Version | Previous Version | Text Only | Print | Product List | Glossary On
Versions: 1 2 3 4 5 6 7 8 9 10 11 12 13 14 15 16 17
000
FTUS44 KCRP 211100
TAFCRP
TAF
KCRP 211133Z 2112/2212 05010KT P6SM SCT025 SCT150
     FM211700 08014KT P6SM FEW035 SCT150
     FM220100 09007KT P6SM FEW018 SCT250=

USA.gov is the U.S. government's official web portal to all federal, state and local government web resources and services.